sensor_id;sensor_type;location;lat;lon;timestamp;temperature;humidity
21811;DHT22;11067;48.788;9.208;2023-11-19T00:01:35;8.60;99.90
21811;DHT22;11067;48.788;9.208;2023-11-19T00:04:01;8.50;99.90
21811;DHT22;11067;48.788;9.208;2023-11-19T00:06:26;8.60;99.90
21811;DHT22;11067;48.788;9.208;2023-11-19T00:08:53;8.50;99.90
21811;DHT22;11067;48.788;9.208;2023-11-19T00:11:18;8.60;99.90
21811;DHT22;11067;48.788;9.208;2023-11-19T00:13:44;8.60;99.90
21811;DHT22;11067;48.788;9.208;2023-11-19T00:16:09;8.60;99.90
21811;DHT22;11067;48.788;9.208;2023-11-19T00:18:35;8.60;99.90
21811;DHT22;11067;48.788;9.208;2023-11-19T00:21:05;8.60;99.90
21811;DHT22;11067;48.788;9.208;2023-11-19T00:23:30;8.60;99.90
21811;DHT22;11067;48.788;9.208;2023-11-19T00:25:56;8.60;99.90
21811;DHT22;11067;48.788;9.208;2023-11-19T00:28:21;8.60;99.90
21811;DHT22;11067;48.788;9.208;2023-11-19T00:30:47;8.60;99.90
21811;DHT22;11067;48.788;9.208;2023-11-19T00:33:12;8.70;99.90
21811;DHT22;11067;48.788;9.208;2023-11-19T00:35:38;8.60;99.90
21811;DHT22;11067;48.788;9.208;2023-11-19T00:38:03;8.60;99.90
21811;DHT22;11067;48.788;9.208;2023-11-19T00:40:29;8.60;99.90
21811;DHT22;11067;48.788;9.208;2023-11-19T00:42:55;8.60;99.90
21811;DHT22;11067;48.788;9.208;2023-11-19T00:45:20;8.60;99.90
21811;DHT22;11067;48.788;9.208;2023-11-19T00:47:46;8.60;99.90
21811;DHT22;11067;48.788;9.208;2023-11-19T00:50:11;8.70;99.90
21811;DHT22;11067;48.788;9.208;2023-11-19T00:52:38;8.70;99.90
21811;DHT22;11067;48.788;9.208;2023-11-19T00:55:04;8.80;99.90
21811;DHT22;11067;48.788;9.208;2023-11-19T00:57:31;8.90;99.90
21811;DHT22;11067;48.788;9.208;2023-11-19T00:59:58;8.80;99.90
21811;DHT22;11067;48.788;9.208;2023-11-19T01:02:24;8.90;99.90
21811;DHT22;11067;48.788;9.208;2023-11-19T01:04:49;8.90;99.90
21811;DHT22;11067;48.788;9.208;2023-11-19T01:07:15;8.90;99.90
21811;DHT22;11067;48.788;9.208;2023-11-19T01:09:42;9.00;99.90
21811;DHT22;11067;48.788;9.208;2023-11-19T01:12:08;9.10;99.90
21811;DHT22;11067;48.788;9.208;2023-11-19T01:14:35;9.10;99.90
21811;DHT22;11067;48.788;9.208;2023-11-19T01:17:01;9.00;99.90
21811;DHT22;11067;48.788;9.208;2023-11-19T01:19:27;9.10;99.90
21811;DHT22;11067;48.788;9.208;2023-11-19T01:21:54;9.10;99.90
21811;DHT22;11067;48.788;9.208;2023-11-19T01:24:20;9.10;99.90
21811;DHT22;11067;48.788;9.208;2023-11-19T01:26:45;9.10;99.90
21811;DHT22;11067;48.788;9.208;2023-11-19T01:29:12;9.10;99.90
21811;DHT22;11067;48.788;9.208;2023-11-19T01:31:42;9.10;99.90
21811;DHT22;11067;48.788;9.208;2023-11-19T01:34:08;9.10;99.90
21811;DHT22;11067;48.788;9.208;2023-11-19T01:36:34;9.10;99.90
21811;DHT22;11067;48.788;9.208;2023-11-19T01:38:59;9.10;99.90
21811;DHT22;11067;48.788;9.208;2023-11-19T01:41:25;9.10;99.90
21811;DHT22;11067;48.788;9.208;2023-11-19T01:43:51;9.20;99.90
21811;DHT22;11067;48.788;9.208;2023-11-19T01:46:16;9.20;99.90
21811;DHT22;11067;48.788;9.208;2023-11-19T01:48:46;9.20;99.90
21811;DHT22;11067;48.788;9.208;2023-11-19T01:51:16;9.20;99.90
21811;DHT22;11067;48.788;9.208;2023-11-19T01:53:43;9.20;99.90
21811;DHT22;11067;48.788;9.208;2023-11-19T01:56:10;9.30;99.90
21811;DHT22;11067;48.788;9.208;2023-11-19T01:58:37;9.30;99.90
21811;DHT22;11067;48.788;9.208;2023-11-19T02:01:05;9.30;99.90
21811;DHT22;11067;48.788;9.208;2023-11-19T02:03:34;9.30;99.90
21811;DHT22;11067;48.788;9.208;2023-11-19T02:06:00;9.40;99.90
21811;DHT22;11067;48.788;9.208;2023-11-19T02:08:26;9.40;99.90
21811;DHT22;11067;48.788;9.208;2023-11-19T02:10:52;9.40;99.90
21811;DHT22;11067;48.788;9.208;2023-11-19T02:13:18;9.50;99.90
21811;DHT22;11067;48.788;9.208;2023-11-19T02:15:44;9.50;99.90
21811;DHT22;11067;48.788;9.208;2023-11-19T02:18:26;9.50;99.90
21811;DHT22;11067;48.788;9.208;2023-11-19T02:20:58;9.50;99.90
21811;DHT22;11067;48.788;9.208;2023-11-19T02:23:28;9.50;99.90
21811;DHT22;11067;48.788;9.208;2023-11-19T02:28:27;9.60;99.90
21811;DHT22;11067;48.788;9.208;2023-11-19T02:30:53;9.60;99.90
21811;DHT22;11067;48.788;9.208;2023-11-19T02:33:18;9.60;99.90
21811;DHT22;11067;48.788;9.208;2023-11-19T02:35:44;9.60;99.90
21811;DHT22;11067;48.788;9.208;2023-11-19T02:38:10;9.60;99.90
21811;DHT22;11067;48.788;9.208;2023-11-19T02:40:36;9.60;99.90
21811;DHT22;11067;48.788;9.208;2023-11-19T02:43:01;9.60;99.90
21811;DHT22;11067;48.788;9.208;2023-11-19T02:45:30;9.70;99.90
21811;DHT22;11067;48.788;9.208;2023-11-19T02:47:56;9.70;99.90
21811;DHT22;11067;48.788;9.208;2023-11-19T02:50:22;9.70;99.90
21811;DHT22;11067;48.788;9.208;2023-11-19T02:52:52;9.80;99.90
21811;DHT22;11067;48.788;9.208;2023-11-19T02:55:19;9.80;99.90
21811;DHT22;11067;48.788;9.208;2023-11-19T02:57:45;9.80;99.90
21811;DHT22;11067;48.788;9.208;2023-11-19T03:00:17;9.80;99.90
21811;DHT22;11067;48.788;9.208;2023-11-19T03:02:51;9.80;99.90
21811;DHT22;11067;48.788;9.208;2023-11-19T03:05:42;9.80;99.90
21811;DHT22;11067;48.788;9.208;2023-11-19T03:08:09;9.80;99.90
21811;DHT22;11067;48.788;9.208;2023-11-19T03:10:35;9.80;99.90
21811;DHT22;11067;48.788;9.208;2023-11-19T03:13:01;9.80;99.90
21811;DHT22;11067;48.788;9.208;2023-11-19T03:15:27;9.90;99.90
21811;DHT22;11067;48.788;9.208;2023-11-19T03:17:53;9.90;99.90
21811;DHT22;11067;48.788;9.208;2023-11-19T03:20:19;9.90;99.90
21811;DHT22;11067;48.788;9.208;2023-11-19T03:22:46;9.90;99.90
21811;DHT22;11067;48.788;9.208;2023-11-19T03:25:11;9.90;99.90
21811;DHT22;11067;48.788;9.208;2023-11-19T03:27:39;9.90;99.90
21811;DHT22;11067;48.788;9.208;2023-11-19T03:30:05;10.00;99.90
21811;DHT22;11067;48.788;9.208;2023-11-19T03:32:32;10.00;99.90
21811;DHT22;11067;48.788;9.208;2023-11-19T03:34:58;9.90;99.90
21811;DHT22;11067;48.788;9.208;2023-11-19T03:37:25;10.00;99.90
21811;DHT22;11067;48.788;9.208;2023-11-19T03:39:51;10.00;99.90
21811;DHT22;11067;48.788;9.208;2023-11-19T03:42:19;9.90;99.90
21811;DHT22;11067;48.788;9.208;2023-11-19T03:44:46;9.90;99.90
21811;DHT22;11067;48.788;9.208;2023-11-19T03:47:11;10.00;99.90
21811;DHT22;11067;48.788;9.208;2023-11-19T03:49:37;9.90;99.90
21811;DHT22;11067;48.788;9.208;2023-11-19T03:52:02;9.90;99.90
21811;DHT22;11067;48.788;9.208;2023-11-19T03:54:28;10.00;99.90
21811;DHT22;11067;48.788;9.208;2023-11-19T03:56:54;10.10;99.90
21811;DHT22;11067;48.788;9.208;2023-11-19T03:59:19;10.10;99.90
21811;DHT22;11067;48.788;9.208;2023-11-19T04:01:46;10.20;99.90
21811;DHT22;11067;48.788;9.208;2023-11-19T04:04:11;10.30;99.90
21811;DHT22;11067;48.788;9.208;2023-11-19T04:06:37;10.30;99.90
21811;DHT22;11067;48.788;9.208;2023-11-19T04:09:03;10.40;99.90
21811;DHT22;11067;48.788;9.208;2023-11-19T04:11:30;10.40;99.90
21811;DHT22;11067;48.788;9.208;2023-11-19T04:13:56;10.40;99.90
21811;DHT22;11067;48.788;9.208;2023-11-19T04:16:26;10.50;99.90
21811;DHT22;11067;48.788;9.208;2023-11-19T04:18:53;10.60;99.90
21811;DHT22;11067;48.788;9.208;2023-11-19T04:21:19;10.70;99.90
21811;DHT22;11067;48.788;9.208;2023-11-19T04:23:44;10.70;99.90
21811;DHT22;11067;48.788;9.208;2023-11-19T04:26:10;10.80;99.90
21811;DHT22;11067;48.788;9.208;2023-11-19T04:28:35;10.90;99.90
21811;DHT22;11067;48.788;9.208;2023-11-19T04:31:01;10.80;99.90
21811;DHT22;11067;48.788;9.208;2023-11-19T04:33:28;11.00;99.90
21811;DHT22;11067;48.788;9.208;2023-11-19T04:35:54;11.00;99.90
21811;DHT22;11067;48.788;9.208;2023-11-19T04:38:19;11.00;99.90
21811;DHT22;11067;48.788;9.208;2023-11-19T04:40:45;11.00;99.90
21811;DHT22;11067;48.788;9.208;2023-11-19T04:43:10;11.00;99.90
21811;DHT22;11067;48.788;9.208;2023-11-19T04:45:36;11.10;99.90
21811;DHT22;11067;48.788;9.208;2023-11-19T04:48:02;11.10;99.90
21811;DHT22;11067;48.788;9.208;2023-11-19T04:50:27;11.20;99.90
21811;DHT22;11067;48.788;9.208;2023-11-19T04:52:53;11.20;99.90
21811;DHT22;11067;48.788;9.208;2023-11-19T04:55:19;11.20;99.90
21811;DHT22;11067;48.788;9.208;2023-11-19T04:57:44;11.30;99.90
21811;DHT22;11067;48.788;9.208;2023-11-19T05:00:10;11.40;99.90
21811;DHT22;11067;48.788;9.208;2023-11-19T05:02:36;11.40;99.90
21811;DHT22;11067;48.788;9.208;2023-11-19T05:05:03;11.40;99.90
21811;DHT22;11067;48.788;9.208;2023-11-19T05:07:30;11.40;99.90
21811;DHT22;11067;48.788;9.208;2023-11-19T05:09:55;11.40;99.90
21811;DHT22;11067;48.788;9.208;2023-11-19T05:12:21;11.50;99.90
21811;DHT22;11067;48.788;9.208;2023-11-19T05:14:46;11.50;99.90
21811;DHT22;11067;48.788;9.208;2023-11-19T05:17:15;11.50;99.90
21811;DHT22;11067;48.788;9.208;2023-11-19T05:19:43;11.50;99.90
21811;DHT22;11067;48.788;9.208;2023-11-19T05:22:09;11.50;99.90
21811;DHT22;11067;48.788;9.208;2023-11-19T05:24:34;11.50;99.90
21811;DHT22;11067;48.788;9.208;2023-11-19T05:27:01;11.50;99.90
21811;DHT22;11067;48.788;9.208;2023-11-19T05:29:27;11.60;99.90
21811;DHT22;11067;48.788;9.208;2023-11-19T05:31:52;11.60;99.90
21811;DHT22;11067;48.788;9.208;2023-11-19T05:34:20;11.50;99.90
21811;DHT22;11067;48.788;9.208;2023-11-19T05:36:45;11.50;99.90
21811;DHT22;11067;48.788;9.208;2023-11-19T05:39:11;11.50;99.90
21811;DHT22;11067;48.788;9.208;2023-11-19T05:41:37;11.50;99.90
21811;DHT22;11067;48.788;9.208;2023-11-19T05:44:02;11.50;99.90
21811;DHT22;11067;48.788;9.208;2023-11-19T05:46:28;11.60;99.90
21811;DHT22;11067;48.788;9.208;2023-11-19T05:48:53;11.50;99.90
21811;DHT22;11067;48.788;9.208;2023-11-19T05:51:19;11.60;99.90
21811;DHT22;11067;48.788;9.208;2023-11-19T05:53:45;11.60;99.90
21811;DHT22;11067;48.788;9.208;2023-11-19T05:56:11;11.70;99.90
21811;DHT22;11067;48.788;9.208;2023-11-19T05:58:37;11.70;99.90
21811;DHT22;11067;48.788;9.208;2023-11-19T06:01:05;11.80;99.90
21811;DHT22;11067;48.788;9.208;2023-11-19T06:03:32;11.80;99.90
21811;DHT22;11067;48.788;9.208;2023-11-19T06:05:58;11.80;99.90
21811;DHT22;11067;48.788;9.208;2023-11-19T06:08:24;11.80;99.90
21811;DHT22;11067;48.788;9.208;2023-11-19T06:10:52;11.80;99.90
21811;DHT22;11067;48.788;9.208;2023-11-19T06:13:18;11.80;99.90
21811;DHT22;11067;48.788;9.208;2023-11-19T06:15:43;11.90;99.90
21811;DHT22;11067;48.788;9.208;2023-11-19T06:18:09;11.90;99.90
21811;DHT22;11067;48.788;9.208;2023-11-19T06:20:37;12.00;99.90
21811;DHT22;11067;48.788;9.208;2023-11-19T06:23:02;12.00;99.90
21811;DHT22;11067;48.788;9.208;2023-11-19T06:25:28;12.00;99.90
21811;DHT22;11067;48.788;9.208;2023-11-19T06:27:54;12.10;99.90
21811;DHT22;11067;48.788;9.208;2023-11-19T06:30:19;12.10;99.90
21811;DHT22;11067;48.788;9.208;2023-11-19T06:32:45;12.00;99.90
21811;DHT22;11067;48.788;9.208;2023-11-19T06:35:11;12.00;99.90
21811;DHT22;11067;48.788;9.208;2023-11-19T06:37:40;12.10;99.90
21811;DHT22;11067;48.788;9.208;2023-11-19T06:40:06;12.10;99.90
21811;DHT22;11067;48.788;9.208;2023-11-19T06:42:34;12.10;99.90
21811;DHT22;11067;48.788;9.208;2023-11-19T06:45:00;12.10;99.90
21811;DHT22;11067;48.788;9.208;2023-11-19T06:47:26;12.10;99.90
21811;DHT22;11067;48.788;9.208;2023-11-19T06:49:53;12.10;99.90
21811;DHT22;11067;48.788;9.208;2023-11-19T06:52:19;12.10;99.90
21811;DHT22;11067;48.788;9.208;2023-11-19T06:54:44;12.10;99.90
21811;DHT22;11067;48.788;9.208;2023-11-19T06:57:11;12.10;99.90
21811;DHT22;11067;48.788;9.208;2023-11-19T06:59:37;12.10;99.90
21811;DHT22;11067;48.788;9.208;2023-11-19T07:02:02;12.10;99.90
21811;DHT22;11067;48.788;9.208;2023-11-19T07:04:28;12.20;99.90
21811;DHT22;11067;48.788;9.208;2023-11-19T07:06:53;12.10;99.90
21811;DHT22;11067;48.788;9.208;2023-11-19T07:09:19;12.10;99.90
21811;DHT22;11067;48.788;9.208;2023-11-19T07:11:44;12.10;99.90
21811;DHT22;11067;48.788;9.208;2023-11-19T07:14:11;12.10;99.90
21811;DHT22;11067;48.788;9.208;2023-11-19T07:16:37;12.10;99.90
21811;DHT22;11067;48.788;9.208;2023-11-19T07:19:03;12.10;99.90
21811;DHT22;11067;48.788;9.208;2023-11-19T07:21:29;12.20;99.90
21811;DHT22;11067;48.788;9.208;2023-11-19T07:23:55;12.30;99.90
21811;DHT22;11067;48.788;9.208;2023-11-19T07:26:21;12.40;99.90
21811;DHT22;11067;48.788;9.208;2023-11-19T07:28:47;12.40;99.90
21811;DHT22;11067;48.788;9.208;2023-11-19T07:31:13;12.40;99.90
21811;DHT22;11067;48.788;9.208;2023-11-19T07:33:39;12.40;99.90
21811;DHT22;11067;48.788;9.208;2023-11-19T07:36:08;12.40;99.90
21811;DHT22;11067;48.788;9.208;2023-11-19T07:38:34;12.40;99.90
21811;DHT22;11067;48.788;9.208;2023-11-19T07:40:59;12.40;99.90
21811;DHT22;11067;48.788;9.208;2023-11-19T07:43:25;12.40;99.90
21811;DHT22;11067;48.788;9.208;2023-11-19T07:45:50;12.50;99.90
21811;DHT22;11067;48.788;9.208;2023-11-19T07:48:16;12.60;99.90
21811;DHT22;11067;48.788;9.208;2023-11-19T07:50:43;12.60;99.90
21811;DHT22;11067;48.788;9.208;2023-11-19T07:53:08;12.70;99.90
21811;DHT22;11067;48.788;9.208;2023-11-19T07:55:34;12.70;99.90
21811;DHT22;11067;48.788;9.208;2023-11-19T07:58:00;12.80;99.90
21811;DHT22;11067;48.788;9.208;2023-11-19T08:00:26;12.80;99.90
21811;DHT22;11067;48.788;9.208;2023-11-19T08:02:52;12.80;99.90
21811;DHT22;11067;48.788;9.208;2023-11-19T08:05:17;12.80;99.90
21811;DHT22;11067;48.788;9.208;2023-11-19T08:07:43;12.80;99.90
21811;DHT22;11067;48.788;9.208;2023-11-19T08:10:08;12.80;99.90
21811;DHT22;11067;48.788;9.208;2023-11-19T08:12:37;12.90;99.90
21811;DHT22;11067;48.788;9.208;2023-11-19T08:15:03;12.90;99.90
21811;DHT22;11067;48.788;9.208;2023-11-19T08:17:30;12.90;99.90
21811;DHT22;11067;48.788;9.208;2023-11-19T08:19:55;13.10;99.90
21811;DHT22;11067;48.788;9.208;2023-11-19T08:22:21;13.20;99.90
21811;DHT22;11067;48.788;9.208;2023-11-19T08:24:48;13.20;99.90
21811;DHT22;11067;48.788;9.208;2023-11-19T08:27:13;13.10;99.90
21811;DHT22;11067;48.788;9.208;2023-11-19T08:29:39;13.10;99.90
21811;DHT22;11067;48.788;9.208;2023-11-19T08:32:06;13.10;99.90
21811;DHT22;11067;48.788;9.208;2023-11-19T08:34:32;13.10;99.90
21811;DHT22;11067;48.788;9.208;2023-11-19T08:36:57;13.20;99.90
21811;DHT22;11067;48.788;9.208;2023-11-19T08:39:23;13.20;99.90
21811;DHT22;11067;48.788;9.208;2023-11-19T08:41:49;13.30;99.90
21811;DHT22;11067;48.788;9.208;2023-11-19T08:44:15;13.50;99.90
21811;DHT22;11067;48.788;9.208;2023-11-19T08:46:48;13.80;99.90
21811;DHT22;11067;48.788;9.208;2023-11-19T08:49:14;14.00;99.90
21811;DHT22;11067;48.788;9.208;2023-11-19T08:51:40;13.90;99.90
21811;DHT22;11067;48.788;9.208;2023-11-19T08:54:06;13.90;99.90
21811;DHT22;11067;48.788;9.208;2023-11-19T08:56:32;13.90;99.90
21811;DHT22;11067;48.788;9.208;2023-11-19T08:59:00;13.80;99.90
21811;DHT22;11067;48.788;9.208;2023-11-19T09:01:25;13.70;99.90
21811;DHT22;11067;48.788;9.208;2023-11-19T09:03:51;13.60;99.90
21811;DHT22;11067;48.788;9.208;2023-11-19T09:06:17;13.70;99.90
21811;DHT22;11067;48.788;9.208;2023-11-19T09:08:43;13.80;99.90
21811;DHT22;11067;48.788;9.208;2023-11-19T09:11:08;14.00;99.90
21811;DHT22;11067;48.788;9.208;2023-11-19T09:13:35;14.00;99.90
21811;DHT22;11067;48.788;9.208;2023-11-19T09:16:00;14.10;99.90
21811;DHT22;11067;48.788;9.208;2023-11-19T09:18:29;14.30;99.90
21811;DHT22;11067;48.788;9.208;2023-11-19T09:20:54;14.30;99.90
21811;DHT22;11067;48.788;9.208;2023-11-19T09:23:20;14.40;99.90
21811;DHT22;11067;48.788;9.208;2023-11-19T09:25:46;14.40;99.90
21811;DHT22;11067;48.788;9.208;2023-11-19T09:28:11;14.30;99.90
21811;DHT22;11067;48.788;9.208;2023-11-19T09:30:38;14.30;99.90
21811;DHT22;11067;48.788;9.208;2023-11-19T09:33:04;14.30;99.90
21811;DHT22;11067;48.788;9.208;2023-11-19T09:35:29;14.30;99.90
21811;DHT22;11067;48.788;9.208;2023-11-19T09:37:55;14.40;99.90
21811;DHT22;11067;48.788;9.208;2023-11-19T09:40:20;14.40;99.90
21811;DHT22;11067;48.788;9.208;2023-11-19T09:42:47;14.60;99.90
21811;DHT22;11067;48.788;9.208;2023-11-19T09:45:14;14.60;99.90
21811;DHT22;11067;48.788;9.208;2023-11-19T09:47:44;14.60;99.90
21811;DHT22;11067;48.788;9.208;2023-11-19T09:50:18;14.60;99.90
21811;DHT22;11067;48.788;9.208;2023-11-19T09:52:44;14.80;99.90
21811;DHT22;11067;48.788;9.208;2023-11-19T09:55:10;15.00;99.90
21811;DHT22;11067;48.788;9.208;2023-11-19T09:57:38;15.10;99.90
21811;DHT22;11067;48.788;9.208;2023-11-19T10:00:06;15.20;99.90
21811;DHT22;11067;48.788;9.208;2023-11-19T10:02:33;15.30;99.90
21811;DHT22;11067;48.788;9.208;2023-11-19T10:05:07;15.40;99.90
21811;DHT22;11067;48.788;9.208;2023-11-19T10:07:35;15.30;99.90
21811;DHT22;11067;48.788;9.208;2023-11-19T10:10:04;15.40;99.90
21811;DHT22;11067;48.788;9.208;2023-11-19T10:12:30;15.60;99.90
21811;DHT22;11067;48.788;9.208;2023-11-19T10:14:57;15.80;99.90
21811;DHT22;11067;48.788;9.208;2023-11-19T10:17:28;15.90;99.90
21811;DHT22;11067;48.788;9.208;2023-11-19T10:19:54;15.80;99.90
21811;DHT22;11067;48.788;9.208;2023-11-19T10:22:23;15.60;99.90
21811;DHT22;11067;48.788;9.208;2023-11-19T10:24:48;15.80;99.90
21811;DHT22;11067;48.788;9.208;2023-11-19T10:27:14;15.60;99.90
21811;DHT22;11067;48.788;9.208;2023-11-19T10:29:40;15.60;99.90
21811;DHT22;11067;48.788;9.208;2023-11-19T10:32:06;15.60;99.90
21811;DHT22;11067;48.788;9.208;2023-11-19T10:34:31;15.60;99.90
21811;DHT22;11067;48.788;9.208;2023-11-19T10:36:57;15.40;99.90
21811;DHT22;11067;48.788;9.208;2023-11-19T10:39:22;15.40;99.90
21811;DHT22;11067;48.788;9.208;2023-11-19T10:41:49;15.50;99.90
21811;DHT22;11067;48.788;9.208;2023-11-19T10:44:34;15.40;99.90
21811;DHT22;11067;48.788;9.208;2023-11-19T10:47:06;15.40;99.90
21811;DHT22;11067;48.788;9.208;2023-11-19T10:49:33;15.50;99.90
21811;DHT22;11067;48.788;9.208;2023-11-19T10:52:00;15.50;99.90
21811;DHT22;11067;48.788;9.208;2023-11-19T10:54:27;15.50;99.90
21811;DHT22;11067;48.788;9.208;2023-11-19T10:56:59;15.60;99.90
21811;DHT22;11067;48.788;9.208;2023-11-19T10:59:30;15.80;99.90
21811;DHT22;11067;48.788;9.208;2023-11-19T11:01:56;15.80;99.90
21811;DHT22;11067;48.788;9.208;2023-11-19T11:04:25;15.90;99.90
21811;DHT22;11067;48.788;9.208;2023-11-19T11:06:54;16.00;99.90
21811;DHT22;11067;48.788;9.208;2023-11-19T11:09:20;16.10;99.90
21811;DHT22;11067;48.788;9.208;2023-11-19T11:11:47;16.10;99.90
21811;DHT22;11067;48.788;9.208;2023-11-19T11:14:13;16.20;99.90
21811;DHT22;11067;48.788;9.208;2023-11-19T11:16:46;16.10;99.90
21811;DHT22;11067;48.788;9.208;2023-11-19T11:19:15;16.00;99.90
21811;DHT22;11067;48.788;9.208;2023-11-19T11:21:44;16.10;99.90
21811;DHT22;11067;48.788;9.208;2023-11-19T11:38:21;15.90;99.90
21811;DHT22;11067;48.788;9.208;2023-11-19T11:41:19;15.70;99.90
21811;DHT22;11067;48.788;9.208;2023-11-19T11:43:49;15.70;99.90
21811;DHT22;11067;48.788;9.208;2023-11-19T11:49:06;15.50;99.90
21811;DHT22;11067;48.788;9.208;2023-11-19T12:02:12;15.70;99.90
21811;DHT22;11067;48.788;9.208;2023-11-19T12:04:39;15.80;99.90
21811;DHT22;11067;48.788;9.208;2023-11-19T12:07:12;15.90;99.90
21811;DHT22;11067;48.788;9.208;2023-11-19T12:09:40;16.00;99.90
21811;DHT22;11067;48.788;9.208;2023-11-19T12:12:19;16.00;99.90
21811;DHT22;11067;48.788;9.208;2023-11-19T12:15:01;16.10;99.90
21811;DHT22;11067;48.788;9.208;2023-11-19T12:20:05;16.10;99.90
21811;DHT22;11067;48.788;9.208;2023-11-19T12:22:31;16.20;99.90
21811;DHT22;11067;48.788;9.208;2023-11-19T12:24:58;16.40;99.90
21811;DHT22;11067;48.788;9.208;2023-11-19T12:27:24;16.50;99.90
21811;DHT22;11067;48.788;9.208;2023-11-19T12:29:50;16.50;99.90
21811;DHT22;11067;48.788;9.208;2023-11-19T12:32:16;16.30;99.90
21811;DHT22;11067;48.788;9.208;2023-11-19T12:34:41;16.40;99.90
21811;DHT22;11067;48.788;9.208;2023-11-19T12:37:07;16.40;99.90
21811;DHT22;11067;48.788;9.208;2023-11-19T12:39:35;16.40;99.90
21811;DHT22;11067;48.788;9.208;2023-11-19T12:42:01;16.40;99.90
21811;DHT22;11067;48.788;9.208;2023-11-19T12:44:26;16.40;99.90
21811;DHT22;11067;48.788;9.208;2023-11-19T12:47:05;16.40;99.90
21811;DHT22;11067;48.788;9.208;2023-11-19T12:49:36;16.30;99.90
21811;DHT22;11067;48.788;9.208;2023-11-19T12:52:10;16.20;99.90
21811;DHT22;11067;48.788;9.208;2023-11-19T12:54:36;16.10;99.90
21811;DHT22;11067;48.788;9.208;2023-11-19T12:57:03;16.10;99.90
21811;DHT22;11067;48.788;9.208;2023-11-19T12:59:30;16.10;99.90
21811;DHT22;11067;48.788;9.208;2023-11-19T13:02:00;16.10;99.90
21811;DHT22;11067;48.788;9.208;2023-11-19T13:04:29;16.10;99.90
21811;DHT22;11067;48.788;9.208;2023-11-19T13:07:01;16.20;99.90
21811;DHT22;11067;48.788;9.208;2023-11-19T13:09:29;16.30;99.90
21811;DHT22;11067;48.788;9.208;2023-11-19T13:11:55;16.30;99.90
21811;DHT22;11067;48.788;9.208;2023-11-19T13:14:36;16.30;99.90
21811;DHT22;11067;48.788;9.208;2023-11-19T13:17:03;16.40;99.90
21811;DHT22;11067;48.788;9.208;2023-11-19T13:19:29;16.40;99.90
21811;DHT22;11067;48.788;9.208;2023-11-19T13:21:54;16.40;97.60
21811;DHT22;11067;48.788;9.208;2023-11-19T13:24:20;16.30;98.50
21811;DHT22;11067;48.788;9.208;2023-11-19T13:26:45;16.30;95.90
21811;DHT22;11067;48.788;9.208;2023-11-19T13:29:11;16.30;99.30
21811;DHT22;11067;48.788;9.208;2023-11-19T13:31:37;16.20;98.20
21811;DHT22;11067;48.788;9.208;2023-11-19T13:34:03;16.10;99.60
21811;DHT22;11067;48.788;9.208;2023-11-19T13:36:29;16.10;97.00
21811;DHT22;11067;48.788;9.208;2023-11-19T13:38:55;16.10;99.10
21811;DHT22;11067;48.788;9.208;2023-11-19T13:41:25;16.10;97.70
21811;DHT22;11067;48.788;9.208;2023-11-19T13:43:51;16.00;99.20
21811;DHT22;11067;48.788;9.208;2023-11-19T13:46:16;15.90;99.00
21811;DHT22;11067;48.788;9.208;2023-11-19T13:48:42;15.90;99.90
21811;DHT22;11067;48.788;9.208;2023-11-19T13:51:08;15.90;99.90
21811;DHT22;11067;48.788;9.208;2023-11-19T13:53:35;16.00;99.90
21811;DHT22;11067;48.788;9.208;2023-11-19T13:56:01;15.90;99.90
21811;DHT22;11067;48.788;9.208;2023-11-19T13:58:26;15.90;99.90
21811;DHT22;11067;48.788;9.208;2023-11-19T14:00:52;15.90;99.90
21811;DHT22;11067;48.788;9.208;2023-11-19T14:03:18;15.90;99.90
21811;DHT22;11067;48.788;9.208;2023-11-19T14:05:43;15.80;95.80
21811;DHT22;11067;48.788;9.208;2023-11-19T14:08:09;15.80;95.70
21811;DHT22;11067;48.788;9.208;2023-11-19T14:10:38;15.80;92.70
21811;DHT22;11067;48.788;9.208;2023-11-19T14:13:07;15.60;92.20
21811;DHT22;11067;48.788;9.208;2023-11-19T14:15:33;15.60;92.50
21811;DHT22;11067;48.788;9.208;2023-11-19T14:17:58;15.50;93.20
21811;DHT22;11067;48.788;9.208;2023-11-19T14:20:24;15.40;93.00
21811;DHT22;11067;48.788;9.208;2023-11-19T14:22:51;15.40;92.50
21811;DHT22;11067;48.788;9.208;2023-11-19T14:25:17;15.40;93.30
21811;DHT22;11067;48.788;9.208;2023-11-19T14:27:44;15.40;93.50
21811;DHT22;11067;48.788;9.208;2023-11-19T14:30:12;15.40;95.30
21811;DHT22;11067;48.788;9.208;2023-11-19T14:32:42;15.30;97.30
21811;DHT22;11067;48.788;9.208;2023-11-19T14:35:09;15.30;97.60
21811;DHT22;11067;48.788;9.208;2023-11-19T14:37:35;15.30;98.60
21811;DHT22;11067;48.788;9.208;2023-11-19T14:40:01;15.30;99.90
21811;DHT22;11067;48.788;9.208;2023-11-19T14:42:29;15.30;99.90
21811;DHT22;11067;48.788;9.208;2023-11-19T14:44:54;15.20;99.90
21811;DHT22;11067;48.788;9.208;2023-11-19T14:47:24;15.20;99.90
21811;DHT22;11067;48.788;9.208;2023-11-19T14:49:50;15.20;99.90
21811;DHT22;11067;48.788;9.208;2023-11-19T14:52:15;15.10;99.90
21811;DHT22;11067;48.788;9.208;2023-11-19T14:54:41;15.20;99.90
21811;DHT22;11067;48.788;9.208;2023-11-19T14:57:07;15.10;99.90
21811;DHT22;11067;48.788;9.208;2023-11-19T14:59:36;15.10;99.90
21811;DHT22;11067;48.788;9.208;2023-11-19T15:02:02;15.00;99.90
21811;DHT22;11067;48.788;9.208;2023-11-19T15:04:28;14.90;99.90
21811;DHT22;11067;48.788;9.208;2023-11-19T15:06:56;14.90;99.90
21811;DHT22;11067;48.788;9.208;2023-11-19T15:09:22;14.80;99.90
21811;DHT22;11067;48.788;9.208;2023-11-19T15:11:48;14.80;99.90
21811;DHT22;11067;48.788;9.208;2023-11-19T15:14:14;14.70;99.90
21811;DHT22;11067;48.788;9.208;2023-11-19T15:16:42;14.60;99.90
21811;DHT22;11067;48.788;9.208;2023-11-19T15:19:08;14.60;99.90
21811;DHT22;11067;48.788;9.208;2023-11-19T15:21:34;14.50;99.90
21811;DHT22;11067;48.788;9.208;2023-11-19T15:24:00;14.50;99.90
21811;DHT22;11067;48.788;9.208;2023-11-19T15:26:25;14.40;99.90
21811;DHT22;11067;48.788;9.208;2023-11-19T15:28:51;14.40;99.90
21811;DHT22;11067;48.788;9.208;2023-11-19T15:31:21;14.40;99.90
21811;DHT22;11067;48.788;9.208;2023-11-19T15:33:47;14.50;99.90
21811;DHT22;11067;48.788;9.208;2023-11-19T15:36:13;14.40;99.90
21811;DHT22;11067;48.788;9.208;2023-11-19T15:38:39;14.30;99.90
21811;DHT22;11067;48.788;9.208;2023-11-19T15:41:05;14.30;99.90
21811;DHT22;11067;48.788;9.208;2023-11-19T15:43:32;14.30;99.90
21811;DHT22;11067;48.788;9.208;2023-11-19T15:45:58;14.10;99.90
21811;DHT22;11067;48.788;9.208;2023-11-19T15:48:24;14.00;99.90
21811;DHT22;11067;48.788;9.208;2023-11-19T15:50:51;14.10;99.90
21811;DHT22;11067;48.788;9.208;2023-11-19T15:53:17;14.00;99.90
21811;DHT22;11067;48.788;9.208;2023-11-19T15:55:44;14.00;99.90
21811;DHT22;11067;48.788;9.208;2023-11-19T15:58:09;14.00;99.90
21811;DHT22;11067;48.788;9.208;2023-11-19T16:00:35;13.90;99.90
21811;DHT22;11067;48.788;9.208;2023-11-19T16:03:00;13.80;99.90
21811;DHT22;11067;48.788;9.208;2023-11-19T16:05:26;13.80;99.90